createdAt,value
2022-10-22T00:00:16.937Z,99574.22
2022-10-22T00:02:44.164Z,99580.31
2022-10-22T00:05:11.709Z,99581.38
2022-10-22T00:07:38.926Z,99579.47
2022-10-22T00:10:06.902Z,99581.97
2022-10-22T00:12:34.078Z,99591.88
2022-10-22T00:15:00.815Z,99596.06
2022-10-22T00:17:27.544Z,99593.31
2022-10-22T00:19:54.313Z,99596.28
2022-10-22T00:22:20.963Z,99604.50
2022-10-22T00:24:47.723Z,99601.75
2022-10-22T00:27:15.048Z,99604.50
2022-10-22T00:29:41.782Z,99609.97
2022-10-22T00:32:08.711Z,99612.09
2022-10-22T00:34:35.409Z,99607.47
2022-10-22T00:37:02.057Z,99618.41
2022-10-22T00:39:29.470Z,99617.56
2022-10-22T00:41:57.869Z,99616.75
2022-10-22T00:45:02.150Z,99619.47
2022-10-22T00:47:39.586Z,99628.75
2022-10-22T00:50:11.426Z,99632.53
2022-10-22T00:52:40.866Z,99630.66
2022-10-22T00:55:08.055Z,99648.75
2022-10-22T00:57:36.508Z,99648.75
2022-10-22T01:00:05.543Z,99659.31
2022-10-22T01:02:32.375Z,99654.06
2022-10-22T01:04:59.112Z,99666.09
2022-10-22T01:07:26.271Z,99669.88
2022-10-22T01:09:52.833Z,99674.53
2022-10-22T01:12:29.324Z,99675.59
2022-10-22T01:15:23.825Z,99687.38
2022-10-22T01:17:58.277Z,99684.03
2022-10-22T01:21:07.621Z,99692.22
2022-10-22T01:23:52.564Z,99698.75
2022-10-22T01:29:05.724Z,99702.34
2022-10-22T01:31:38.827Z,99699.84
2022-10-22T01:34:08.444Z,99704.25
2022-10-22T01:36:37.525Z,99715.19
2022-10-22T01:39:06.709Z,99713.53
2022-10-22T01:41:34.897Z,99719.84
2022-10-22T01:44:01.666Z,99728.06
2022-10-22T01:46:29.376Z,99731.00
2022-10-22T01:49:21.740Z,99735.03
2022-10-22T01:51:57.179Z,99733.34
2022-10-22T01:54:35.715Z,99749.41
2022-10-22T01:57:11.676Z,99744.97
2022-10-22T01:59:41.249Z,99751.50
2022-10-22T02:02:39.687Z,99750.50
2022-10-22T02:05:23.204Z,99747.81
2022-10-22T02:07:55.536Z,99748.28
2022-10-22T02:10:23.942Z,99757.97
2022-10-22T02:12:54.718Z,99751.28
2022-10-22T02:15:23.991Z,99765.41
2022-10-22T02:17:53.375Z,99762.06
2022-10-22T02:20:33.375Z,99767.53
2022-10-22T02:23:01.764Z,99763.94
2022-10-22T02:25:32.596Z,99763.34
2022-10-22T02:28:15.873Z,99765.44
2022-10-22T02:30:46.900Z,99766.72
2022-10-22T02:33:22.453Z,99770.53
2022-10-22T02:35:51.097Z,99770.78
2022-10-22T02:38:19.208Z,99771.41
2022-10-22T02:40:46.990Z,99772.91
2022-10-22T02:43:14.108Z,99777.78
2022-10-22T02:45:41.046Z,99778.22
2022-10-22T02:48:08.024Z,99781.19
2022-10-22T02:50:34.810Z,99779.94
2022-10-22T02:53:01.536Z,99782.88
2022-10-22T02:55:28.382Z,99779.75
2022-10-22T02:57:55.217Z,99779.09
2022-10-22T03:00:22.375Z,99776.00
2022-10-22T03:02:49.098Z,99781.25
2022-10-22T03:05:16.003Z,99787.19
2022-10-22T03:07:43.169Z,99784.88
2022-10-22T03:10:10.171Z,99785.06
2022-10-22T03:12:36.881Z,99793.47
2022-10-22T03:15:04.108Z,99790.13
2022-10-22T03:17:30.821Z,99801.50
2022-10-22T03:19:57.447Z,99802.53
2022-10-22T03:22:28.420Z,99802.31
2022-10-22T03:25:00.862Z,99807.78
2022-10-22T03:27:30.242Z,99801.50
2022-10-22T03:29:58.876Z,99823.34
2022-10-22T03:32:25.587Z,99821.47
2022-10-22T03:34:52.480Z,99828.81
2022-10-22T03:37:19.631Z,99829.25
2022-10-22T03:39:46.880Z,99842.28
2022-10-22T03:42:13.764Z,99842.28
2022-10-22T03:44:41.191Z,99854.91
2022-10-22T03:47:08.272Z,99850.72
2022-10-22T03:49:35.146Z,99859.13
2022-10-22T03:52:09.633Z,99862.91
2022-10-22T03:57:09.436Z,99872.38
2022-10-22T03:59:44.599Z,99864.59
2022-10-22T04:02:13.438Z,99877.66
2022-10-22T04:04:40.108Z,99887.72
2022-10-22T04:07:08.458Z,99882.25
2022-10-22T04:09:35.406Z,99884.16
2022-10-22T04:12:02.158Z,99896.97
2022-10-22T04:14:28.915Z,99906.03
2022-10-22T04:16:55.725Z,99905.38
2022-10-22T04:19:22.391Z,99908.75
2022-10-22T04:21:49.387Z,99911.06
2022-10-22T04:24:16.449Z,99909.19
2022-10-22T04:26:43.573Z,99902.69
2022-10-22T04:29:13.583Z,99907.72
2022-10-22T04:31:42.811Z,99903.72
2022-10-22T04:34:09.480Z,99913.38
2022-10-22T04:36:36.425Z,99911.31
2022-10-22T04:39:04.286Z,99911.72
2022-10-22T04:41:33.495Z,99919.28
2022-10-22T04:44:01.164Z,99922.44
2022-10-22T04:46:30.666Z,99925.38
2022-10-22T04:48:57.332Z,99927.69
2022-10-22T04:51:26.226Z,99926.44
2022-10-22T04:53:53.621Z,99927.69
2022-10-22T04:56:23.178Z,99937.13
2022-10-22T04:58:54.666Z,99945.75
2022-10-22T05:01:24.269Z,99939.84
2022-10-22T05:03:53.299Z,99950.13
2022-10-22T05:06:23.333Z,99952.63
2022-10-22T05:08:55.823Z,99960.38
2022-10-22T05:11:33.966Z,99965.84
2022-10-22T05:14:02.638Z,99967.94
2022-10-22T05:16:30.354Z,99982.63
2022-10-22T05:18:59.308Z,99980.31
2022-10-22T05:21:26.600Z,99984.31
2022-10-22T05:23:54.885Z,99988.47
2022-10-22T05:26:22.784Z,99991.63
2022-10-22T05:28:51.786Z,99995.59
2022-10-22T05:31:18.998Z,100001.69
2022-10-22T05:33:46.528Z,100011.94
2022-10-22T05:36:16.626Z,100014.03
2022-10-22T05:38:43.362Z,100015.09
2022-10-22T05:41:12.591Z,100008.34
2022-10-22T05:43:39.399Z,100024.91
2022-10-22T05:46:09.231Z,100031.41
2022-10-22T05:48:36.492Z,100034.34
2022-10-22T05:51:05.650Z,100033.47
2022-10-22T05:53:36.777Z,100033.03
2022-10-22T05:56:06.796Z,100040.38
2022-10-22T05:58:34.675Z,100045.19
2022-10-22T06:01:13.001Z,100035.53
2022-10-22T06:03:40.345Z,100035.28
2022-10-22T06:06:42.214Z,100039.47
2022-10-22T06:09:41.370Z,100048.47
2022-10-22T06:12:11.421Z,100069.00
2022-10-22T06:14:38.243Z,100063.75
2022-10-22T06:17:05.013Z,100064.63
2022-10-22T06:19:31.679Z,100069.41
2022-10-22T06:21:58.394Z,100076.09
2022-10-22T06:24:25.132Z,100080.72
2022-10-22T06:26:52.432Z,100080.06
2022-10-22T06:29:19.150Z,100094.09
2022-10-22T06:31:45.830Z,100097.41
2022-10-22T06:34:14.333Z,100101.38
2022-10-22T06:36:42.896Z,100100.75
2022-10-22T06:39:12.956Z,100104.09
2022-10-22T06:41:40.134Z,100103.91
2022-10-22T06:44:07.466Z,100112.91
2022-10-22T06:46:34.152Z,100117.53
2022-10-22T06:49:03.412Z,100124.22
2022-10-22T06:51:30.299Z,100124.22
2022-10-22T06:53:58.045Z,100130.06
2022-10-22T06:56:27.244Z,100135.72
2022-10-22T06:58:55.808Z,100145.78
2022-10-22T07:01:28.713Z,100146.16
2022-10-22T07:03:55.822Z,100148.06
2022-10-22T07:06:23.809Z,100150.31
2022-10-22T07:08:51.091Z,100157.84
2022-10-22T07:11:23.494Z,100158.06
2022-10-22T07:13:50.371Z,100162.47
2022-10-22T07:16:18.476Z,100164.81
2022-10-22T07:18:45.914Z,100170.88
2022-10-22T07:21:15.071Z,100177.19
2022-10-22T07:23:42.364Z,100178.22
2022-10-22T07:26:10.028Z,100180.13
2022-10-22T07:28:39.874Z,100179.25
2022-10-22T07:31:09.342Z,100188.09
2022-10-22T07:33:36.643Z,100191.47
2022-10-22T07:36:06.606Z,100199.63
2022-10-22T07:38:34.157Z,100200.47
2022-10-22T07:41:01.208Z,100205.09
2022-10-22T07:43:27.980Z,100207.41
2022-10-22T07:45:57.852Z,100215.84
2022-10-22T07:48:24.722Z,100213.75
2022-10-22T07:50:52.127Z,100220.16
2022-10-22T07:53:19.847Z,100230.53
2022-10-22T07:55:51.223Z,100229.16
2022-10-22T07:58:19.579Z,100236.72
2022-10-22T08:05:38.278Z,100249.66
2022-10-22T08:09:04.807Z,100258.34
2022-10-22T08:16:23.649Z,100252.53
2022-10-22T08:19:50.173Z,100256.94
2022-10-22T08:23:16.795Z,100260.53
2022-10-22T08:26:43.226Z,100259.06
2022-10-22T08:33:52.930Z,100277.44
2022-10-22T08:37:19.352Z,100273.50
2022-10-22T08:44:37.096Z,100289.88
2022-10-22T08:48:09.737Z,100291.31
2022-10-22T08:54:39.270Z,100295.13
2022-10-22T08:57:28.628Z,100297.84
2022-10-22T09:00:55.364Z,100299.16
2022-10-22T09:04:05.153Z,100304.88
2022-10-22T09:07:31.838Z,100313.22
2022-10-22T09:10:58.294Z,100311.91
2022-10-22T09:18:08.972Z,100309.63
2022-10-22T09:21:47.652Z,100309.41
2022-10-22T09:25:14.187Z,100311.75
2022-10-22T09:46:04.405Z,100325.44
2022-10-22T09:48:35.037Z,100327.31
2022-10-22T09:51:13.789Z,100324.75
2022-10-22T09:54:04.689Z,100338.84
2022-10-22T09:56:37.242Z,100333.34
2022-10-22T09:59:04.275Z,100335.84
2022-10-22T10:01:38.707Z,100341.09
2022-10-22T10:04:09.901Z,100328.63
2022-10-22T10:06:42.451Z,100340.16
2022-10-22T10:09:21.034Z,100343.09
2022-10-22T10:12:03.147Z,100340.91
2022-10-22T10:14:45.199Z,100339.19
2022-10-22T10:17:36.851Z,100342.06
2022-10-22T10:20:15.566Z,100343.09
2022-10-22T10:22:58.422Z,100346.19
2022-10-22T10:25:48.212Z,100356.69
2022-10-22T10:28:15.070Z,100350.69
2022-10-22T10:31:08.703Z,100356.53
2022-10-22T10:33:47.405Z,100355.59
2022-10-22T10:36:40.266Z,100372.69
2022-10-22T10:39:13.029Z,100359.72
2022-10-22T10:41:39.551Z,100369.75
2022-10-22T10:44:29.965Z,100362.66
2022-10-22T10:47:20.553Z,100364.25
2022-10-22T10:49:47.906Z,100364.69
2022-10-22T10:52:27.880Z,100369.84
2022-10-22T10:55:20.598Z,100378.06
2022-10-22T10:57:54.268Z,100363.28
2022-10-22T11:00:22.740Z,100369.94
2022-10-22T11:03:10.801Z,100379.31
2022-10-22T11:05:41.009Z,100374.06
2022-10-22T11:08:46.317Z,100382.59
2022-10-22T11:11:21.963Z,100379.06
2022-10-22T11:14:03.379Z,100372.06
2022-10-22T11:16:37.497Z,100378.78
2022-10-22T11:19:49.596Z,100374.28
2022-10-22T11:22:34.355Z,100380.59
2022-10-22T11:25:13.206Z,100369.88
2022-10-22T11:27:48.375Z,100377.78
2022-10-22T11:30:21.936Z,100374.44
2022-10-22T11:33:00.114Z,100377.91
2022-10-22T11:35:30.601Z,100372.56
2022-10-22T11:37:58.599Z,100378.03
2022-10-22T11:41:37.610Z,100382.13
2022-10-22T11:45:02.283Z,100383.34
2022-10-22T11:48:19.201Z,100374.91
2022-10-22T11:51:31.715Z,100392.56
2022-10-22T11:54:47.261Z,100394.53
2022-10-22T11:57:36.710Z,100395.16
2022-10-22T12:01:21.318Z,100389.66
2022-10-22T12:04:57.223Z,100389.16
2022-10-22T12:08:35.581Z,100397.41
2022-10-22T12:12:05.135Z,100398.19
2022-10-22T12:19:25.899Z,100391.88
2022-10-22T12:22:32.354Z,100396.06
2022-10-22T12:29:59.593Z,100381.03
2022-10-22T12:33:35.271Z,100383.16
2022-10-22T12:41:04.906Z,100368.31
2022-10-22T12:44:31.398Z,100360.56
2022-10-22T12:47:58.140Z,100356.94
2022-10-22T12:51:24.576Z,100371.06
2022-10-22T12:58:45.002Z,100369.78
2022-10-22T13:02:14.344Z,100366.81
2022-10-22T13:09:16.677Z,100375.22
2022-10-22T13:12:48.953Z,100374.28
2022-10-22T13:15:47.594Z,100359.13
2022-10-22T13:19:14.015Z,100361.28
2022-10-22T13:22:40.578Z,100344.91
2022-10-22T13:25:36.105Z,100370.16
2022-10-22T13:28:42.795Z,100348.88
2022-10-22T13:32:09.245Z,100350.59
2022-10-22T13:34:36.610Z,100364.09
2022-10-22T13:38:03.194Z,100379.81
2022-10-22T13:47:41.531Z,100393.25
2022-10-22T13:51:14.259Z,100353.44
2022-10-22T13:53:41.644Z,100358.88
2022-10-22T13:57:10.038Z,100374.50
2022-10-22T14:03:34.746Z,100329.97
2022-10-22T14:06:01.895Z,100335.25
2022-10-22T14:08:28.908Z,100354.59
2022-10-22T14:10:55.897Z,100361.25
2022-10-22T14:13:22.886Z,100353.00
2022-10-22T14:16:49.646Z,100345.66
2022-10-22T14:20:16.239Z,100338.69
2022-10-22T14:26:35.392Z,100346.84
2022-10-22T14:29:11.327Z,100353.03
2022-10-22T14:31:44.486Z,100346.25
2022-10-22T14:34:13.786Z,100350.44
2022-10-22T14:36:43.751Z,100352.66
2022-10-22T14:39:11.147Z,100354.25
2022-10-22T14:41:38.492Z,100357.28
2022-10-22T14:44:05.341Z,100356.28
2022-10-22T14:46:32.432Z,100359.25
2022-10-22T14:48:59.193Z,100357.19
2022-10-22T14:51:26.015Z,100343.28
2022-10-22T14:53:52.862Z,100349.19
2022-10-22T14:56:22.689Z,100348.38
2022-10-22T14:58:50.095Z,100349.53
2022-10-22T15:01:17.487Z,100346.22
2022-10-22T15:03:44.214Z,100354.84
2022-10-22T15:06:11.033Z,100355.72
2022-10-22T15:08:37.914Z,100354.09
2022-10-22T15:11:07.601Z,100364.13
2022-10-22T15:13:35.304Z,100357.28
2022-10-22T15:16:02.419Z,100359.81
2022-10-22T15:18:29.618Z,100355.59
2022-10-22T15:21:00.503Z,100356.44
2022-10-22T15:23:28.254Z,100356.56
2022-10-22T15:25:55.753Z,100356.91
2022-10-22T15:28:23.385Z,100349.25
2022-10-22T15:30:59.424Z,100340.38
2022-10-22T15:33:28.248Z,100348.16
2022-10-22T15:35:56.113Z,100353.47
2022-10-22T15:41:06.858Z,100351.06
2022-10-22T15:43:34.890Z,100346.03
2022-10-22T15:46:13.865Z,100345.16
2022-10-22T15:48:41.611Z,100349.13
2022-10-22T15:51:14.090Z,100347.81
2022-10-22T15:53:41.646Z,100345.88
2022-10-22T15:56:09.666Z,100353.66
2022-10-22T15:58:36.608Z,100356.25
2022-10-22T16:01:12.335Z,100366.41
2022-10-22T16:03:39.555Z,100359.78
2022-10-22T16:06:08.202Z,100360.13
2022-10-22T16:08:35.411Z,100363.31
2022-10-22T16:11:02.290Z,100357.91
2022-10-22T16:13:29.042Z,100367.34
2022-10-22T16:15:55.747Z,100371.72
2022-10-22T16:18:23.778Z,100362.00
2022-10-22T16:20:50.798Z,100364.84
2022-10-22T16:23:19.076Z,100373.31
2022-10-22T16:25:46.857Z,100375.25
2022-10-22T16:28:14.125Z,100362.09
2022-10-22T16:30:41.779Z,100365.06
2022-10-22T16:33:10.078Z,100370.38
2022-10-22T16:35:41.398Z,100360.66
2022-10-22T16:38:10.439Z,100359.28
2022-10-22T16:40:37.187Z,100362.97
2022-10-22T16:43:03.899Z,100363.88
2022-10-22T16:45:30.676Z,100360.75
2022-10-22T16:47:57.529Z,100357.59
2022-10-22T16:50:24.188Z,100350.88
2022-10-22T16:52:50.954Z,100353.25
2022-10-22T16:55:18.035Z,100354.78
2022-10-22T16:57:50.715Z,100362.41
2022-10-22T17:00:17.477Z,100359.72
2022-10-22T17:02:44.568Z,100360.19
2022-10-22T17:05:11.279Z,100365.28
2022-10-22T17:07:38.023Z,100367.22
2022-10-22T17:10:05.693Z,100370.19
2022-10-22T17:12:35.511Z,100375.13
2022-10-22T17:15:06.511Z,100365.00
2022-10-22T17:17:33.669Z,100357.91
2022-10-22T17:20:00.271Z,100363.47
2022-10-22T17:22:27.253Z,100358.88
2022-10-22T17:25:43.234Z,100361.91
2022-10-22T17:28:13.412Z,100357.97
2022-10-22T17:30:41.136Z,100362.91
2022-10-22T17:33:08.669Z,100382.41
2022-10-22T17:35:40.384Z,100382.22
2022-10-22T17:38:07.772Z,100399.16
2022-10-22T17:40:54.569Z,100401.09
2022-10-22T17:43:49.017Z,100391.00
2022-10-22T17:46:24.169Z,100404.53
2022-10-22T17:48:52.564Z,100396.13
2022-10-22T17:51:21.240Z,100400.59
2022-10-22T17:53:50.299Z,100407.59
2022-10-22T17:56:20.708Z,100405.88
2022-10-22T17:58:47.438Z,100405.28
2022-10-22T18:01:22.333Z,100407.16
2022-10-22T18:03:49.773Z,100412.25
2022-10-22T18:06:16.589Z,100400.84
2022-10-22T18:08:43.858Z,100403.22
2022-10-22T18:11:13.495Z,100401.31
2022-10-22T18:13:40.207Z,100398.78
2022-10-22T18:16:07.397Z,100405.97
2022-10-22T18:18:35.117Z,100413.78
2022-10-22T18:21:02.585Z,100416.53
2022-10-22T18:23:29.613Z,100415.91
2022-10-22T18:25:56.282Z,100423.28
2022-10-22T18:28:22.989Z,100414.66
2022-10-22T18:30:50.013Z,100412.13
2022-10-22T18:33:19.042Z,100413.56
2022-10-22T18:35:48.598Z,100408.94
2022-10-22T18:38:15.502Z,100413.56
2022-10-22T18:40:48.624Z,100413.19
2022-10-22T18:43:19.187Z,100424.78
2022-10-22T18:45:47.740Z,100419.72
2022-10-22T18:48:17.009Z,100414.06
2022-10-22T18:50:44.726Z,100418.06
2022-10-22T18:53:13.835Z,100420.59
2022-10-22T18:55:41.233Z,100418.47
2022-10-22T18:58:08.129Z,100421.84
2022-10-22T19:00:35.868Z,100422.69
2022-10-22T19:03:03.587Z,100426.91
2022-10-22T19:05:31.180Z,100430.09
2022-10-22T19:07:57.859Z,100438.53
2022-10-22T19:10:24.534Z,100432.63
2022-10-22T19:12:51.356Z,100426.31
2022-10-22T19:15:18.032Z,100433.72
2022-10-22T19:17:45.171Z,100427.19
2022-10-22T19:20:13.275Z,100422.53
2022-10-22T19:22:41.060Z,100432.25
2022-10-22T19:25:11.212Z,100435.84
2022-10-22T19:27:39.787Z,100439.44
2022-10-22T19:30:07.420Z,100434.38
2022-10-22T19:32:34.817Z,100433.13
2022-10-22T19:35:01.779Z,100435.25
2022-10-22T19:37:28.585Z,100432.50
2022-10-22T19:39:55.236Z,100438.41
2022-10-22T19:42:21.975Z,100436.06
2022-10-22T19:44:48.744Z,100439.00
2022-10-22T19:47:16.244Z,100432.91
2022-10-22T19:49:42.955Z,100434.78
2022-10-22T19:52:09.860Z,100433.31
2022-10-22T19:54:40.955Z,100431.84
2022-10-22T19:57:08.669Z,100427.63
2022-10-22T19:59:35.866Z,100428.06
2022-10-22T20:02:03.946Z,100429.75
2022-10-22T20:04:30.862Z,100427.84
2022-10-22T20:06:57.649Z,100424.88
2022-10-22T20:09:24.982Z,100421.31
2022-10-22T20:11:51.657Z,100420.25
2022-10-22T20:14:18.482Z,100426.59
2022-10-22T20:16:45.302Z,100430.59
2022-10-22T20:19:16.207Z,100433.13
2022-10-22T20:21:44.242Z,100446.59
2022-10-22T20:24:12.426Z,100444.91
2022-10-22T20:26:39.207Z,100441.34
2022-10-22T20:29:05.995Z,100431.63
2022-10-22T20:31:33.306Z,100436.72
2022-10-22T20:34:01.528Z,100440.50
2022-10-22T20:36:30.089Z,100433.97
2022-10-22T20:39:09.142Z,100435.25
2022-10-22T20:41:40.806Z,100441.75
2022-10-22T20:44:14.970Z,100433.53
2022-10-22T20:46:42.796Z,100437.31
2022-10-22T20:49:13.145Z,100438.41
2022-10-22T20:51:39.975Z,100434.41
2022-10-22T20:54:08.232Z,100438.41
2022-10-22T20:56:37.932Z,100435.66
2022-10-22T20:59:05.897Z,100440.69
2022-10-22T21:01:36.807Z,100446.41
2022-10-22T21:04:04.498Z,100450.41
2022-10-22T21:06:31.549Z,100454.19
2022-10-22T21:08:58.450Z,100454.16
2022-10-22T21:11:25.144Z,100456.47
2022-10-22T21:13:52.109Z,100457.50
2022-10-22T21:16:19.920Z,100462.97
2022-10-22T21:18:47.455Z,100472.91
2022-10-22T21:21:17.102Z,100480.28
2022-10-22T21:23:44.010Z,100476.06
2022-10-22T21:26:11.107Z,100471.63
2022-10-22T21:28:38.654Z,100477.09
2022-10-22T21:31:08.217Z,100473.53
2022-10-22T21:33:40.028Z,100475.22
2022-10-22T21:36:09.196Z,100475.63
2022-10-22T21:38:36.751Z,100486.56
2022-10-22T21:41:13.788Z,100484.25
2022-10-22T21:43:42.023Z,100477.28
2022-10-22T21:46:14.082Z,100481.13
2022-10-22T21:48:40.917Z,100474.78
2022-10-22T21:51:17.143Z,100482.34
2022-10-22T21:53:44.357Z,100476.28
2022-10-22T21:56:16.375Z,100475.00
2022-10-22T21:58:43.731Z,100474.16
2022-10-22T22:01:12.607Z,100480.53
2022-10-22T22:03:46.260Z,100472.75
2022-10-22T22:06:13.638Z,100468.75
2022-10-22T22:08:40.534Z,100464.75
2022-10-22T22:11:10.765Z,100466.41
2022-10-22T22:13:38.567Z,100465.38
2022-10-22T22:16:08.598Z,100463.47
2022-10-22T22:18:36.395Z,100467.28
2022-10-22T22:21:06.328Z,100461.78
2022-10-22T22:23:33.940Z,100466.41
2022-10-22T22:26:01.870Z,100473.81
2022-10-22T22:28:32.389Z,100471.28
2022-10-22T22:30:59.283Z,100471.50
2022-10-22T22:33:26.400Z,100478.63
2022-10-22T22:35:53.641Z,100477.59
2022-10-22T22:38:20.306Z,100460.53
2022-10-22T22:40:47.246Z,100467.06
2022-10-22T22:43:14.195Z,100468.09
2022-10-22T22:45:41.090Z,100459.25
2022-10-22T22:48:08.454Z,100460.94
2022-10-22T22:50:36.870Z,100461.56
2022-10-22T22:53:03.618Z,100456.09
2022-10-22T22:55:32.279Z,100447.88
2022-10-22T22:57:59.112Z,100445.97
2022-10-22T23:00:25.910Z,100449.56
2022-10-22T23:02:56.539Z,100442.41
2022-10-22T23:05:23.201Z,100436.69
2022-10-22T23:07:49.844Z,100438.13
2022-10-22T23:10:16.737Z,100432.25
2022-10-22T23:12:43.755Z,100432.25
2022-10-22T23:15:11.124Z,100427.41
2022-10-22T23:17:38.741Z,100427.19
2022-10-22T23:20:06.077Z,100420.03
2022-10-22T23:22:32.699Z,100429.09
2022-10-22T23:24:59.549Z,100427.59
2022-10-22T23:27:26.254Z,100425.09
2022-10-22T23:29:52.895Z,100419.16
2022-10-22T23:32:19.728Z,100413.50
2022-10-22T23:34:46.394Z,100413.06
2022-10-22T23:37:13.109Z,100417.06
2022-10-22T23:39:39.879Z,100417.28
2022-10-22T23:42:06.652Z,100413.91
2022-10-22T23:44:33.289Z,100414.13
2022-10-22T23:47:00.275Z,100413.47
2022-10-22T23:49:26.938Z,100407.38
2022-10-22T23:51:53.563Z,100403.78
2022-10-22T23:54:20.524Z,100395.78
2022-10-22T23:56:47.363Z,100393.03
